sensor_id;sensor_type;location;lat;lon;timestamp;pressure;altitude;pressure_sealevel;temperature;humidity
7433;BME280;32233;49.500;7.764;2023-02-04T00:02:03;99834.25;;;6.38;100.00
7433;BME280;32233;49.500;7.764;2023-02-04T00:04:29;99836.59;;;6.51;100.00
7433;BME280;32233;49.500;7.764;2023-02-04T00:06:56;99838.28;;;6.33;100.00
7433;BME280;32233;49.500;7.764;2023-02-04T00:09:22;99842.00;;;6.40;100.00
7433;BME280;32233;49.500;7.764;2023-02-04T00:11:49;99854.19;;;6.41;100.00
7433;BME280;32233;49.500;7.764;2023-02-04T00:14:15;99859.56;;;6.49;100.00
7433;BME280;32233;49.500;7.764;2023-02-04T00:16:42;99859.28;;;6.42;100.00
7433;BME280;32233;49.500;7.764;2023-02-04T00:19:08;99856.50;;;6.44;100.00
7433;BME280;32233;49.500;7.764;2023-02-04T00:21:35;99865.50;;;6.41;100.00
7433;BME280;32233;49.500;7.764;2023-02-04T00:24:01;99864.81;;;6.30;100.00
7433;BME280;32233;49.500;7.764;2023-02-04T00:26:28;99864.00;;;6.29;100.00
7433;BME280;32233;49.500;7.764;2023-02-04T00:28:54;99867.44;;;6.30;100.00
7433;BME280;32233;49.500;7.764;2023-02-04T00:31:21;99869.50;;;6.26;100.00
7433;BME280;32233;49.500;7.764;2023-02-04T00:33:48;99875.44;;;6.28;100.00
7433;BME280;32233;49.500;7.764;2023-02-04T00:36:14;99878.06;;;6.28;100.00
7433;BME280;32233;49.500;7.764;2023-02-04T00:38:41;99868.53;;;6.27;100.00
7433;BME280;32233;49.500;7.764;2023-02-04T00:41:07;99870.06;;;6.20;100.00
7433;BME280;32233;49.500;7.764;2023-02-04T00:43:34;99867.28;;;6.31;100.00
7433;BME280;32233;49.500;7.764;2023-02-04T00:46:00;99866.63;;;6.29;100.00
7433;BME280;32233;49.500;7.764;2023-02-04T00:48:27;99871.16;;;6.27;100.00
7433;BME280;32233;49.500;7.764;2023-02-04T00:50:54;99862.31;;;6.38;100.00
7433;BME280;32233;49.500;7.764;2023-02-04T00:53:20;99856.94;;;6.30;100.00
7433;BME280;32233;49.500;7.764;2023-02-04T00:55:47;99876.84;;;6.23;100.00
7433;BME280;32233;49.500;7.764;2023-02-04T00:58:13;99880.56;;;6.20;100.00
7433;BME280;32233;49.500;7.764;2023-02-04T01:00:40;99873.91;;;6.16;100.00
7433;BME280;32233;49.500;7.764;2023-02-04T01:03:08;99876.97;;;6.02;100.00
7433;BME280;32233;49.500;7.764;2023-02-04T01:05:35;99882.22;;;6.02;100.00
7433;BME280;32233;49.500;7.764;2023-02-04T01:08:03;99882.22;;;6.02;100.00
7433;BME280;32233;49.500;7.764;2023-02-04T01:10:29;99886.91;;;5.98;100.00
7433;BME280;32233;49.500;7.764;2023-02-04T01:12:57;99883.31;;;5.99;100.00
7433;BME280;32233;49.500;7.764;2023-02-04T01:15:23;99879.88;;;5.99;100.00
7433;BME280;32233;49.500;7.764;2023-02-04T01:17:52;99886.22;;;5.96;100.00
7433;BME280;32233;49.500;7.764;2023-02-04T01:20:18;99877.25;;;5.99;100.00
7433;BME280;32233;49.500;7.764;2023-02-04T01:22:47;99880.69;;;5.99;100.00
7433;BME280;32233;49.500;7.764;2023-02-04T01:25:13;99896.59;;;5.98;100.00
7433;BME280;32233;49.500;7.764;2023-02-04T01:27:41;99896.41;;;5.89;100.00
7433;BME280;32233;49.500;7.764;2023-02-04T01:30:08;99894.03;;;5.86;100.00
7433;BME280;32233;49.500;7.764;2023-02-04T01:32:34;99895.16;;;5.84;100.00
7433;BME280;32233;49.500;7.764;2023-02-04T01:35:02;99897.63;;;5.85;100.00
7433;BME280;32233;49.500;7.764;2023-02-04T01:37:28;99898.63;;;5.84;100.00
7433;BME280;32233;49.500;7.764;2023-02-04T01:39:55;99897.06;;;5.82;100.00
7433;BME280;32233;49.500;7.764;2023-02-04T01:42:21;99892.66;;;5.82;100.00
7433;BME280;32233;49.500;7.764;2023-02-04T01:44:48;99894.72;;;5.79;100.00
7433;BME280;32233;49.500;7.764;2023-02-04T01:47:15;99908.78;;;5.68;100.00
7433;BME280;32233;49.500;7.764;2023-02-04T01:49:41;99895.69;;;5.68;100.00
7433;BME280;32233;49.500;7.764;2023-02-04T01:52:09;99905.59;;;5.64;100.00
7433;BME280;32233;49.500;7.764;2023-02-04T01:54:36;99914.00;;;5.58;100.00
7433;BME280;32233;49.500;7.764;2023-02-04T01:57:05;99913.00;;;5.50;100.00
7433;BME280;32233;49.500;7.764;2023-02-04T01:59:32;99920.59;;;5.43;100.00
7433;BME280;32233;49.500;7.764;2023-02-04T02:01:59;99915.63;;;5.50;100.00
7433;BME280;32233;49.500;7.764;2023-02-04T02:04:31;99929.44;;;5.52;100.00
7433;BME280;32233;49.500;7.764;2023-02-04T02:07:02;99924.72;;;5.45;100.00
7433;BME280;32233;49.500;7.764;2023-02-04T02:09:30;99921.94;;;5.37;100.00
7433;BME280;32233;49.500;7.764;2023-02-04T02:12:00;99930.50;;;5.39;100.00
7433;BME280;32233;49.500;7.764;2023-02-04T02:14:28;99927.25;;;5.26;100.00
7433;BME280;32233;49.500;7.764;2023-02-04T02:16:55;99940.66;;;5.23;100.00
7433;BME280;32233;49.500;7.764;2023-02-04T02:19:28;99927.94;;;5.18;100.00
7433;BME280;32233;49.500;7.764;2023-02-04T02:22:03;99921.53;;;5.11;100.00
7433;BME280;32233;49.500;7.764;2023-02-04T02:24:32;99918.66;;;5.14;100.00
7433;BME280;32233;49.500;7.764;2023-02-04T02:27:08;99924.03;;;5.13;100.00
7433;BME280;32233;49.500;7.764;2023-02-04T02:29:37;99920.00;;;5.09;100.00
7433;BME280;32233;49.500;7.764;2023-02-04T02:32:05;99915.88;;;5.06;100.00
7433;BME280;32233;49.500;7.764;2023-02-04T02:34:32;99917.38;;;5.09;100.00
7433;BME280;32233;49.500;7.764;2023-02-04T02:37:01;99917.38;;;5.09;100.00
7433;BME280;32233;49.500;7.764;2023-02-04T02:39:28;99928.44;;;5.12;100.00
7433;BME280;32233;49.500;7.764;2023-02-04T02:41:56;99922.63;;;5.09;100.00
7433;BME280;32233;49.500;7.764;2023-02-04T02:44:23;99924.16;;;5.11;100.00
7433;BME280;32233;49.500;7.764;2023-02-04T02:46:51;99933.00;;;5.10;100.00
7433;BME280;32233;49.500;7.764;2023-02-04T02:49:19;99926.34;;;5.06;100.00
7433;BME280;32233;49.500;7.764;2023-02-04T02:51:47;99937.38;;;5.10;100.00
7433;BME280;32233;49.500;7.764;2023-02-04T02:54:22;99943.31;;;5.02;100.00
7433;BME280;32233;49.500;7.764;2023-02-04T02:56:52;99941.13;;;5.07;100.00
7433;BME280;32233;49.500;7.764;2023-02-04T02:59:21;99943.72;;;5.07;100.00
7433;BME280;32233;49.500;7.764;2023-02-04T03:01:51;99948.53;;;5.02;100.00
7433;BME280;32233;49.500;7.764;2023-02-04T03:04:21;99947.13;;;4.98;100.00
7433;BME280;32233;49.500;7.764;2023-02-04T03:06:48;99953.06;;;5.00;100.00
7433;BME280;32233;49.500;7.764;2023-02-04T03:09:15;99949.09;;;5.06;100.00
7433;BME280;32233;49.500;7.764;2023-02-04T03:11:45;99953.69;;;5.13;100.00
7433;BME280;32233;49.500;7.764;2023-02-04T03:14:12;99959.06;;;5.12;100.00
7433;BME280;32233;49.500;7.764;2023-02-04T03:16:39;99957.81;;;5.06;100.00
7433;BME280;32233;49.500;7.764;2023-02-04T03:19:07;99960.25;;;4.98;100.00
7433;BME280;32233;49.500;7.764;2023-02-04T03:21:34;99967.97;;;5.00;100.00
7433;BME280;32233;49.500;7.764;2023-02-04T03:24:02;99977.88;;;4.96;100.00
7433;BME280;32233;49.500;7.764;2023-02-04T03:26:29;99987.19;;;4.89;100.00
7433;BME280;32233;49.500;7.764;2023-02-04T03:28:56;99990.28;;;4.94;100.00
7433;BME280;32233;49.500;7.764;2023-02-04T03:31:24;99993.16;;;4.91;100.00
7433;BME280;32233;49.500;7.764;2023-02-04T03:33:50;99992.03;;;4.93;100.00
7433;BME280;32233;49.500;7.764;2023-02-04T03:36:17;99987.78;;;4.92;100.00
7433;BME280;32233;49.500;7.764;2023-02-04T03:38:43;99990.09;;;4.86;100.00
7433;BME280;32233;49.500;7.764;2023-02-04T03:41:10;100003.28;;;4.84;100.00
7433;BME280;32233;49.500;7.764;2023-02-04T03:43:36;100006.34;;;4.89;100.00
7433;BME280;32233;49.500;7.764;2023-02-04T03:46:03;100004.44;;;4.70;100.00
7433;BME280;32233;49.500;7.764;2023-02-04T03:48:30;100004.41;;;4.82;100.00
7433;BME280;32233;49.500;7.764;2023-02-04T03:50:56;100006.69;;;4.75;100.00
7433;BME280;32233;49.500;7.764;2023-02-04T03:53:23;100008.31;;;4.76;100.00
7433;BME280;32233;49.500;7.764;2023-02-04T03:55:49;100008.56;;;4.73;100.00
7433;BME280;32233;49.500;7.764;2023-02-04T03:58:16;100013.72;;;4.75;100.00
7433;BME280;32233;49.500;7.764;2023-02-04T04:00:42;100013.19;;;4.81;100.00
7433;BME280;32233;49.500;7.764;2023-02-04T04:03:09;100010.84;;;4.78;100.00
7433;BME280;32233;49.500;7.764;2023-02-04T04:05:35;100009.06;;;4.78;100.00
7433;BME280;32233;49.500;7.764;2023-02-04T04:08:02;100009.63;;;4.82;100.00
7433;BME280;32233;49.500;7.764;2023-02-04T04:10:29;100012.44;;;4.90;100.00
7433;BME280;32233;49.500;7.764;2023-02-04T04:12:55;100007.94;;;4.81;100.00
7433;BME280;32233;49.500;7.764;2023-02-04T04:15:22;100002.47;;;4.84;100.00
7433;BME280;32233;49.500;7.764;2023-02-04T04:17:48;100014.78;;;4.72;100.00
7433;BME280;32233;49.500;7.764;2023-02-04T04:20:15;100020.34;;;4.79;100.00
7433;BME280;32233;49.500;7.764;2023-02-04T04:22:42;100018.38;;;4.71;100.00
7433;BME280;32233;49.500;7.764;2023-02-04T04:25:08;100018.03;;;4.64;100.00
7433;BME280;32233;49.500;7.764;2023-02-04T04:27:35;100005.50;;;4.68;100.00
7433;BME280;32233;49.500;7.764;2023-02-04T04:30:02;100014.34;;;4.67;100.00
7433;BME280;32233;49.500;7.764;2023-02-04T04:32:28;100011.72;;;4.67;100.00
7433;BME280;32233;49.500;7.764;2023-02-04T04:34:55;100010.28;;;4.63;100.00
7433;BME280;32233;49.500;7.764;2023-02-04T04:37:21;100015.03;;;4.69;100.00
7433;BME280;32233;49.500;7.764;2023-02-04T04:39:48;100026.97;;;4.62;100.00
7433;BME280;32233;49.500;7.764;2023-02-04T04:42:14;100034.25;;;4.58;100.00
7433;BME280;32233;49.500;7.764;2023-02-04T04:44:41;100040.44;;;4.57;100.00
7433;BME280;32233;49.500;7.764;2023-02-04T04:47:07;100029.00;;;4.58;100.00
7433;BME280;32233;49.500;7.764;2023-02-04T04:49:34;100036.97;;;4.57;100.00
7433;BME280;32233;49.500;7.764;2023-02-04T04:52:00;100039.59;;;4.57;100.00
7433;BME280;32233;49.500;7.764;2023-02-04T04:54:27;100040.44;;;4.57;100.00
7433;BME280;32233;49.500;7.764;2023-02-04T04:56:53;100053.88;;;4.53;100.00
7433;BME280;32233;49.500;7.764;2023-02-04T04:59:20;100058.28;;;4.52;100.00
7433;BME280;32233;49.500;7.764;2023-02-04T05:01:46;100054.47;;;4.56;100.00
7433;BME280;32233;49.500;7.764;2023-02-04T05:04:13;100048.31;;;4.46;100.00
7433;BME280;32233;49.500;7.764;2023-02-04T05:06:39;100047.38;;;4.47;100.00
7433;BME280;32233;49.500;7.764;2023-02-04T05:09:05;100041.75;;;4.52;100.00
7433;BME280;32233;49.500;7.764;2023-02-04T05:11:32;100050.41;;;4.63;100.00
7433;BME280;32233;49.500;7.764;2023-02-04T05:13:59;100039.97;;;4.52;100.00
7433;BME280;32233;49.500;7.764;2023-02-04T05:16:25;100050.13;;;4.34;100.00
7433;BME280;32233;49.500;7.764;2023-02-04T05:18:52;100049.44;;;4.21;100.00
7433;BME280;32233;49.500;7.764;2023-02-04T05:21:18;100031.50;;;4.05;100.00
7433;BME280;32233;49.500;7.764;2023-02-04T05:23:45;100035.13;;;4.36;100.00
7433;BME280;32233;49.500;7.764;2023-02-04T05:26:11;100032.84;;;4.43;100.00
7433;BME280;32233;49.500;7.764;2023-02-04T05:28:50;100041.09;;;4.38;100.00
7433;BME280;32233;49.500;7.764;2023-02-04T05:31:17;100036.28;;;4.55;100.00
7433;BME280;32233;49.500;7.764;2023-02-04T05:33:43;100030.06;;;4.56;100.00
7433;BME280;32233;49.500;7.764;2023-02-04T05:36:10;100028.59;;;4.42;100.00
7433;BME280;32233;49.500;7.764;2023-02-04T05:38:36;100034.44;;;4.34;100.00
7433;BME280;32233;49.500;7.764;2023-02-04T05:41:03;100035.22;;;4.57;100.00
7433;BME280;32233;49.500;7.764;2023-02-04T05:43:29;100040.44;;;4.57;100.00
7433;BME280;32233;49.500;7.764;2023-02-04T05:45:56;100045.53;;;4.70;100.00
7433;BME280;32233;49.500;7.764;2023-02-04T05:48:23;100040.28;;;4.70;100.00
7433;BME280;32233;49.500;7.764;2023-02-04T05:50:49;100041.09;;;4.70;100.00
7433;BME280;32233;49.500;7.764;2023-02-04T05:53:16;100047.00;;;4.40;100.00
7433;BME280;32233;49.500;7.764;2023-02-04T05:55:42;100056.06;;;4.36;100.00
7433;BME280;32233;49.500;7.764;2023-02-04T05:58:09;100058.00;;;4.23;100.00
7433;BME280;32233;49.500;7.764;2023-02-04T06:00:35;100069.28;;;4.35;100.00
7433;BME280;32233;49.500;7.764;2023-02-04T06:03:02;100071.06;;;4.45;100.00
7433;BME280;32233;49.500;7.764;2023-02-04T06:05:28;100075.56;;;4.43;100.00
7433;BME280;32233;49.500;7.764;2023-02-04T06:07:55;100080.50;;;4.14;100.00
7433;BME280;32233;49.500;7.764;2023-02-04T06:10:21;100084.63;;;4.28;100.00
7433;BME280;32233;49.500;7.764;2023-02-04T06:12:48;100094.84;;;4.54;100.00
7433;BME280;32233;49.500;7.764;2023-02-04T06:15:14;100102.94;;;4.51;100.00
7433;BME280;32233;49.500;7.764;2023-02-04T06:17:41;100115.00;;;4.31;100.00
7433;BME280;32233;49.500;7.764;2023-02-04T06:20:09;100116.19;;;4.15;100.00
7433;BME280;32233;49.500;7.764;2023-02-04T06:22:36;100123.31;;;4.36;100.00
7433;BME280;32233;49.500;7.764;2023-02-04T06:25:02;100122.25;;;4.05;100.00
7433;BME280;32233;49.500;7.764;2023-02-04T06:27:29;100125.25;;;4.00;100.00
7433;BME280;32233;49.500;7.764;2023-02-04T06:29:55;100120.47;;;4.05;100.00
7433;BME280;32233;49.500;7.764;2023-02-04T06:32:22;100111.19;;;4.01;100.00
7433;BME280;32233;49.500;7.764;2023-02-04T06:34:49;100112.41;;;4.08;100.00
7433;BME280;32233;49.500;7.764;2023-02-04T06:37:15;100121.44;;;4.04;100.00
7433;BME280;32233;49.500;7.764;2023-02-04T06:39:42;100120.13;;;4.21;100.00
7433;BME280;32233;49.500;7.764;2023-02-04T06:42:09;100126.31;;;4.09;100.00
7433;BME280;32233;49.500;7.764;2023-02-04T06:44:35;100122.25;;;4.38;100.00
7433;BME280;32233;49.500;7.764;2023-02-04T06:47:02;100118.53;;;4.52;100.00
7433;BME280;32233;49.500;7.764;2023-02-04T06:49:28;100119.34;;;4.64;100.00
7433;BME280;32233;49.500;7.764;2023-02-04T06:51:55;100130.00;;;4.29;100.00
7433;BME280;32233;49.500;7.764;2023-02-04T06:54:21;100134.75;;;4.12;100.00
7433;BME280;32233;49.500;7.764;2023-02-04T06:56:48;100142.59;;;4.23;100.00
7433;BME280;32233;49.500;7.764;2023-02-04T06:59:14;100141.91;;;4.33;100.00
7433;BME280;32233;49.500;7.764;2023-02-04T07:01:41;100151.28;;;4.46;100.00
7433;BME280;32233;49.500;7.764;2023-02-04T07:04:07;100146.97;;;4.57;100.00
7433;BME280;32233;49.500;7.764;2023-02-04T07:06:34;100149.84;;;4.54;100.00
7433;BME280;32233;49.500;7.764;2023-02-04T07:09:00;100165.19;;;4.47;100.00
7433;BME280;32233;49.500;7.764;2023-02-04T07:11:27;100160.69;;;4.38;100.00
7433;BME280;32233;49.500;7.764;2023-02-04T07:13:53;100175.31;;;4.18;100.00
7433;BME280;32233;49.500;7.764;2023-02-04T07:16:20;100172.84;;;4.16;100.00
7433;BME280;32233;49.500;7.764;2023-02-04T07:18:46;100175.31;;;4.18;100.00
7433;BME280;32233;49.500;7.764;2023-02-04T07:21:13;100178.06;;;4.28;100.00
7433;BME280;32233;49.500;7.764;2023-02-04T07:23:39;100167.94;;;4.45;100.00
7433;BME280;32233;49.500;7.764;2023-02-04T07:26:05;100178.28;;;4.47;100.00
7433;BME280;32233;49.500;7.764;2023-02-04T07:28:32;100173.28;;;4.55;100.00
7433;BME280;32233;49.500;7.764;2023-02-04T07:30:58;100171.97;;;4.61;100.00
7433;BME280;32233;49.500;7.764;2023-02-04T07:33:25;100172.31;;;4.67;100.00
7433;BME280;32233;49.500;7.764;2023-02-04T07:35:51;100187.47;;;4.41;100.00
7433;BME280;32233;49.500;7.764;2023-02-04T07:38:18;100182.81;;;4.22;100.00
7433;BME280;32233;49.500;7.764;2023-02-04T07:40:44;100194.13;;;4.23;100.00
7433;BME280;32233;49.500;7.764;2023-02-04T07:43:11;100204.00;;;4.42;100.00
7433;BME280;32233;49.500;7.764;2023-02-04T07:45:38;100202.19;;;4.65;100.00
7433;BME280;32233;49.500;7.764;2023-02-04T07:48:04;100206.38;;;4.67;100.00
7433;BME280;32233;49.500;7.764;2023-02-04T07:50:31;100204.34;;;4.71;100.00
7433;BME280;32233;49.500;7.764;2023-02-04T07:52:58;100217.81;;;4.66;100.00
7433;BME280;32233;49.500;7.764;2023-02-04T07:55:24;100214.69;;;4.72;100.00
7433;BME280;32233;49.500;7.764;2023-02-04T07:57:51;100219.94;;;4.84;100.00
7433;BME280;32233;49.500;7.764;2023-02-04T08:00:18;100229.19;;;5.10;100.00
7433;BME280;32233;49.500;7.764;2023-02-04T08:02:44;100217.28;;;5.06;100.00
7433;BME280;32233;49.500;7.764;2023-02-04T08:05:11;100223.72;;;5.02;100.00
7433;BME280;32233;49.500;7.764;2023-02-04T08:07:38;100219.81;;;4.85;100.00
7433;BME280;32233;49.500;7.764;2023-02-04T08:10:06;100219.78;;;4.96;100.00
7433;BME280;32233;49.500;7.764;2023-02-04T08:12:33;100228.16;;;4.79;100.00
7433;BME280;32233;49.500;7.764;2023-02-04T08:14:59;100234.47;;;4.88;100.00
7433;BME280;32233;49.500;7.764;2023-02-04T08:17:29;100234.06;;;5.04;100.00
7433;BME280;32233;49.500;7.764;2023-02-04T08:19:55;100236.50;;;5.39;100.00
7433;BME280;32233;49.500;7.764;2023-02-04T08:22:22;100224.84;;;6.27;100.00
7433;BME280;32233;49.500;7.764;2023-02-04T08:24:48;100233.06;;;6.33;100.00
7433;BME280;32233;49.500;7.764;2023-02-04T08:27:15;100241.69;;;6.24;100.00
7433;BME280;32233;49.500;7.764;2023-02-04T08:29:41;100245.97;;;5.83;100.00
7433;BME280;32233;49.500;7.764;2023-02-04T08:32:08;100249.22;;;6.29;100.00
7433;BME280;32233;49.500;7.764;2023-02-04T08:34:38;100253.88;;;6.25;100.00
7433;BME280;32233;49.500;7.764;2023-02-04T08:37:05;100251.66;;;6.51;100.00
7433;BME280;32233;49.500;7.764;2023-02-04T08:39:31;100252.25;;;6.55;100.00
7433;BME280;32233;49.500;7.764;2023-02-04T08:41:58;100247.41;;;6.60;100.00
7433;BME280;32233;49.500;7.764;2023-02-04T08:44:24;100244.78;;;7.00;100.00
7433;BME280;32233;49.500;7.764;2023-02-04T08:46:51;100246.44;;;6.91;100.00
7433;BME280;32233;49.500;7.764;2023-02-04T08:49:17;100254.69;;;7.27;100.00
7433;BME280;32233;49.500;7.764;2023-02-04T08:51:44;100251.34;;;7.15;100.00
7433;BME280;32233;49.500;7.764;2023-02-04T08:54:10;100257.03;;;6.80;99.62
7433;BME280;32233;49.500;7.764;2023-02-04T08:56:37;100260.78;;;7.37;99.81
7433;BME280;32233;49.500;7.764;2023-02-04T08:59:03;100264.50;;;7.25;95.68
7433;BME280;32233;49.500;7.764;2023-02-04T09:01:30;100260.88;;;7.07;100.00
7433;BME280;32233;49.500;7.764;2023-02-04T09:03:57;100264.44;;;7.06;97.85
7433;BME280;32233;49.500;7.764;2023-02-04T09:06:23;100267.56;;;6.80;100.00
7433;BME280;32233;49.500;7.764;2023-02-04T09:08:50;100264.56;;;6.94;100.00
7433;BME280;32233;49.500;7.764;2023-02-04T09:11:16;100262.31;;;6.50;100.00
7433;BME280;32233;49.500;7.764;2023-02-04T09:13:43;100271.41;;;6.76;100.00
7433;BME280;32233;49.500;7.764;2023-02-04T09:16:09;100266.97;;;6.77;100.00
7433;BME280;32233;49.500;7.764;2023-02-04T09:18:36;100258.69;;;6.81;100.00
7433;BME280;32233;49.500;7.764;2023-02-04T09:21:03;100263.84;;;6.83;100.00
7433;BME280;32233;49.500;7.764;2023-02-04T09:23:29;100279.06;;;6.89;98.59
7433;BME280;32233;49.500;7.764;2023-02-04T09:25:56;100275.34;;;6.09;100.00
7433;BME280;32233;49.500;7.764;2023-02-04T09:28:22;100279.13;;;6.16;100.00
7433;BME280;32233;49.500;7.764;2023-02-04T09:30:49;100286.53;;;6.53;100.00
7433;BME280;32233;49.500;7.764;2023-02-04T09:33:15;100285.56;;;6.85;100.00
7433;BME280;32233;49.500;7.764;2023-02-04T09:35:42;100282.19;;;7.13;99.35
7433;BME280;32233;49.500;7.764;2023-02-04T09:38:08;100281.91;;;7.07;97.53
7433;BME280;32233;49.500;7.764;2023-02-04T09:40:43;100283.97;;;7.03;98.66
7433;BME280;32233;49.500;7.764;2023-02-04T09:43:17;100296.34;;;6.82;100.00
7433;BME280;32233;49.500;7.764;2023-02-04T09:45:47;100303.28;;;6.92;100.00
7433;BME280;32233;49.500;7.764;2023-02-04T09:48:14;100311.06;;;6.94;100.00
7433;BME280;32233;49.500;7.764;2023-02-04T09:50:41;100301.88;;;6.79;100.00
7433;BME280;32233;49.500;7.764;2023-02-04T09:53:12;100303.81;;;6.56;100.00
7433;BME280;32233;49.500;7.764;2023-02-04T09:55:40;100306.22;;;6.68;100.00
7433;BME280;32233;49.500;7.764;2023-02-04T09:58:30;100303.16;;;6.63;100.00
7433;BME280;32233;49.500;7.764;2023-02-04T10:01:00;100307.56;;;6.53;100.00
7433;BME280;32233;49.500;7.764;2023-02-04T10:03:31;100315.78;;;6.49;100.00
7433;BME280;32233;49.500;7.764;2023-02-04T10:05:58;100314.50;;;6.64;100.00
7433;BME280;32233;49.500;7.764;2023-02-04T10:08:30;100319.94;;;6.72;99.95
7433;BME280;32233;49.500;7.764;2023-02-04T10:10:58;100318.59;;;6.57;99.05
7433;BME280;32233;49.500;7.764;2023-02-04T10:13:30;100322.31;;;6.75;97.70
7433;BME280;32233;49.500;7.764;2023-02-04T10:15:57;100314.13;;;6.99;96.71
7433;BME280;32233;49.500;7.764;2023-02-04T10:18:31;100327.03;;;7.12;95.10
7433;BME280;32233;49.500;7.764;2023-02-04T10:21:21;100327.50;;;6.86;95.61
7433;BME280;32233;49.500;7.764;2023-02-04T10:23:54;100331.38;;;7.23;94.91
7433;BME280;32233;49.500;7.764;2023-02-04T10:26:23;100326.50;;;7.68;91.80
7433;BME280;32233;49.500;7.764;2023-02-04T10:29:01;100321.22;;;8.46;91.13
7433;BME280;32233;49.500;7.764;2023-02-04T10:31:33;100326.50;;;7.97;83.29
7433;BME280;32233;49.500;7.764;2023-02-04T10:34:16;100327.88;;;7.82;86.27
7433;BME280;32233;49.500;7.764;2023-02-04T10:36:46;100331.19;;;7.74;90.95
7433;BME280;32233;49.500;7.764;2023-02-04T10:39:21;100332.56;;;7.59;88.51
7433;BME280;32233;49.500;7.764;2023-02-04T10:41:52;100322.47;;;7.74;89.19
7433;BME280;32233;49.500;7.764;2023-02-04T10:44:25;100324.56;;;7.80;86.21
7433;BME280;32233;49.500;7.764;2023-02-04T10:49:29;100322.72;;;7.61;88.02
7433;BME280;32233;49.500;7.764;2023-02-04T10:51:56;100319.97;;;7.72;87.45
7433;BME280;32233;49.500;7.764;2023-02-04T10:54:29;100324.84;;;7.77;86.49
7433;BME280;32233;49.500;7.764;2023-02-04T10:57:13;100327.06;;;7.81;82.97
7433;BME280;32233;49.500;7.764;2023-02-04T10:59:43;100319.41;;;7.78;82.67
7433;BME280;32233;49.500;7.764;2023-02-04T11:02:31;100323.56;;;7.61;81.47
7433;BME280;32233;49.500;7.764;2023-02-04T11:04:59;100321.78;;;8.01;79.17
7433;BME280;32233;49.500;7.764;2023-02-04T11:07:26;100325.00;;;8.80;75.98
7433;BME280;32233;49.500;7.764;2023-02-04T11:09:53;100316.06;;;8.54;73.47
7433;BME280;32233;49.500;7.764;2023-02-04T11:12:41;100312.00;;;8.69;74.20
7433;BME280;32233;49.500;7.764;2023-02-04T11:20:48;100301.94;;;8.92;71.25
7433;BME280;32233;49.500;7.764;2023-02-04T11:31:22;100318.34;;;9.13;68.13
7433;BME280;32233;49.500;7.764;2023-02-04T11:36:32;100318.00;;;8.61;72.38
7433;BME280;32233;49.500;7.764;2023-02-04T11:39:06;100314.28;;;8.54;76.11
7433;BME280;32233;49.500;7.764;2023-02-04T11:41:33;100317.75;;;8.45;74.40
7433;BME280;32233;49.500;7.764;2023-02-04T11:44:00;100327.31;;;7.78;75.54
7433;BME280;32233;49.500;7.764;2023-02-04T11:46:28;100323.16;;;7.85;78.28
7433;BME280;32233;49.500;7.764;2023-02-04T11:48:56;100322.34;;;7.94;75.04
7433;BME280;32233;49.500;7.764;2023-02-04T11:51:28;100322.34;;;8.04;75.85
7433;BME280;32233;49.500;7.764;2023-02-04T11:53:56;100321.22;;;7.87;80.28
7433;BME280;32233;49.500;7.764;2023-02-04T11:56:23;100325.66;;;7.77;79.60
7433;BME280;32233;49.500;7.764;2023-02-04T11:58:56;100314.53;;;8.51;77.01
7433;BME280;32233;49.500;7.764;2023-02-04T12:01:28;100305.88;;;9.33;66.66
7433;BME280;32233;49.500;7.764;2023-02-04T12:04:01;100307.28;;;10.09;58.65
7433;BME280;32233;49.500;7.764;2023-02-04T12:06:30;100302.00;;;10.09;60.28
7433;BME280;32233;49.500;7.764;2023-02-04T12:09:30;100300.63;;;10.23;63.46
7433;BME280;32233;49.500;7.764;2023-02-04T12:12:01;100302.28;;;10.41;57.60
7433;BME280;32233;49.500;7.764;2023-02-04T12:16:59;100303.41;;;8.67;68.54
7433;BME280;32233;49.500;7.764;2023-02-04T12:19:26;100313.19;;;8.18;70.21
7433;BME280;32233;49.500;7.764;2023-02-04T12:21:53;100305.69;;;7.75;71.83
7433;BME280;32233;49.500;7.764;2023-02-04T12:24:20;100314.84;;;7.90;71.57
7433;BME280;32233;49.500;7.764;2023-02-04T12:26:46;100312.91;;;7.73;73.95
7433;BME280;32233;49.500;7.764;2023-02-04T12:29:13;100307.31;;;7.47;74.75
7433;BME280;32233;49.500;7.764;2023-02-04T12:31:39;100310.97;;;7.65;75.70
7433;BME280;32233;49.500;7.764;2023-02-04T12:34:06;100310.97;;;7.84;75.58
7433;BME280;32233;49.500;7.764;2023-02-04T12:36:33;100322.88;;;8.08;73.11
7433;BME280;32233;49.500;7.764;2023-02-04T12:38:59;100322.44;;;8.32;68.99
7433;BME280;32233;49.500;7.764;2023-02-04T12:41:26;100318.59;;;8.16;69.48
7433;BME280;32233;49.500;7.764;2023-02-04T12:43:53;100312.09;;;8.01;71.18
7433;BME280;32233;49.500;7.764;2023-02-04T12:46:21;100313.84;;;8.59;67.49
7433;BME280;32233;49.500;7.764;2023-02-04T12:48:47;100317.59;;;8.93;67.10
7433;BME280;32233;49.500;7.764;2023-02-04T12:51:14;100318.25;;;8.68;68.16
7433;BME280;32233;49.500;7.764;2023-02-04T12:53:40;100324.69;;;9.21;68.84
7433;BME280;32233;49.500;7.764;2023-02-04T12:56:07;100319.06;;;9.97;68.73
7433;BME280;32233;49.500;7.764;2023-02-04T12:58:34;100321.41;;;10.17;64.24
7433;BME280;32233;49.500;7.764;2023-02-04T13:01:00;100321.22;;;9.48;65.83
7433;BME280;32233;49.500;7.764;2023-02-04T13:03:29;100319.25;;;8.48;70.85
7433;BME280;32233;49.500;7.764;2023-02-04T13:05:56;100318.69;;;8.63;70.64
7433;BME280;32233;49.500;7.764;2023-02-04T13:08:22;100318.13;;;8.60;69.70
7433;BME280;32233;49.500;7.764;2023-02-04T13:10:49;100312.75;;;8.52;69.50
7433;BME280;32233;49.500;7.764;2023-02-04T13:13:18;100312.50;;;8.26;71.64
7433;BME280;32233;49.500;7.764;2023-02-04T13:15:45;100313.72;;;8.12;72.24
7433;BME280;32233;49.500;7.764;2023-02-04T13:18:11;100323.03;;;7.97;70.70
7433;BME280;32233;49.500;7.764;2023-02-04T13:20:38;100316.09;;;7.86;73.41
7433;BME280;32233;49.500;7.764;2023-02-04T13:23:05;100317.75;;;8.26;71.48
7433;BME280;32233;49.500;7.764;2023-02-04T13:25:31;100314.28;;;8.91;70.18
7433;BME280;32233;49.500;7.764;2023-02-04T13:27:58;100319.63;;;9.09;68.52
7433;BME280;32233;49.500;7.764;2023-02-04T13:30:25;100319.66;;;9.73;66.83